GMEPT EGGD-EGNX
Flight info
| Callsign | GMEPT |
|---|---|
| Flight time | 1h 15m |
| Altitude | 8000 |
| Route | YORQI L607 NUCHU DCT CPT M183 SILVE M605 DTY |
| Aircraft | BE58/L-SDCTGY/C |
Departure
| Time | 2026-05-06 16:35 |
|---|---|
| Airport | Bristol Airport (EGGD) |
Arrival
| Time | 2026-05-06 17:50 |
|---|---|
| Airport | East Midlands Airport (EGNX) |
| Time | Latitude | Longitude | Altitude | Speed | Heading |
|---|---|---|---|---|---|
| 2026-05-06 16:27 | 51.38526 | -2.71960 | 600 ft | 0 kts | 266° |
| 2026-05-06 16:34 | 51.38415 | -2.72028 | 602 ft | 6 kts | 221° |
| 2026-05-06 16:34 | 51.38375 | -2.72129 | 603 ft | 14 kts | 247° |
| 2026-05-06 16:34 | 51.38322 | -2.72283 | 607 ft | 14 kts | 230° |
| 2026-05-06 16:34 | 51.38257 | -2.72260 | 608 ft | 13 kts | 89° |
| 2026-05-06 16:35 | 51.38282 | -2.71586 | 600 ft | 99 kts | 86° |
| 2026-05-06 16:35 | 51.38291 | -2.70523 | 1134 ft | 93 kts | 93° |
| 2026-05-06 16:35 | 51.38382 | -2.69177 | 1769 ft | 101 kts | 78° |
| 2026-05-06 16:35 | 51.38434 | -2.68405 | 2064 ft | 108 kts | 78° |
| 2026-05-06 16:36 | 51.38486 | -2.67195 | 2536 ft | 113 kts | 83° |
| 2026-05-06 16:36 | 51.38523 | -2.65936 | 3031 ft | 115 kts | 83° |
| 2026-05-06 16:36 | 51.38556 | -2.64674 | 3524 ft | 115 kts | 83° |
| 2026-05-06 16:36 | 51.38588 | -2.63415 | 4007 ft | 115 kts | 83° |
| 2026-05-06 16:37 | 51.38619 | -2.62139 | 4462 ft | 117 kts | 83° |
| 2026-05-06 16:37 | 51.38652 | -2.60821 | 4856 ft | 123 kts | 83° |
| 2026-05-06 16:37 | 51.38683 | -2.59456 | 5274 ft | 125 kts | 84° |
| 2026-05-06 16:37 | 51.38710 | -2.58053 | 5664 ft | 131 kts | 85° |
| 2026-05-06 16:38 | 51.38971 | -2.56608 | 5890 ft | 143 kts | 56° |
| 2026-05-06 16:38 | 51.39637 | -2.55337 | 6020 ft | 158 kts | 41° |
| 2026-05-06 16:38 | 51.40543 | -2.54181 | 5997 ft | 175 kts | 34° |
| 2026-05-06 16:38 | 51.41587 | -2.53077 | 5985 ft | 181 kts | 31° |
| 2026-05-06 16:39 | 51.42657 | -2.52040 | 5982 ft | 183 kts | 30° |
| 2026-05-06 16:39 | 51.43773 | -2.50995 | 5980 ft | 184 kts | 29° |
| 2026-05-06 16:39 | 51.44866 | -2.49962 | 5977 ft | 185 kts | 31° |
| 2026-05-06 16:39 | 51.45962 | -2.48867 | 5979 ft | 185 kts | 31° |
| 2026-05-06 16:40 | 51.47053 | -2.47776 | 5979 ft | 184 kts | 31° |
| 2026-05-06 16:40 | 51.48121 | -2.46711 | 5976 ft | 179 kts | 31° |
| 2026-05-06 16:40 | 51.49177 | -2.45657 | 5976 ft | 175 kts | 31° |
| 2026-05-06 16:40 | 51.50204 | -2.44633 | 5977 ft | 173 kts | 31° |
| 2026-05-06 16:41 | 51.51222 | -2.43613 | 5973 ft | 173 kts | 32° |
| 2026-05-06 16:41 | 51.51913 | -2.42072 | 5977 ft | 175 kts | 74° |
| 2026-05-06 16:41 | 51.51962 | -2.40133 | 5981 ft | 178 kts | 91° |
| 2026-05-06 16:41 | 51.51858 | -2.38143 | 5980 ft | 179 kts | 92° |
| 2026-05-06 16:42 | 51.51733 | -2.36161 | 5977 ft | 179 kts | 93° |
| 2026-05-06 16:42 | 51.51601 | -2.34172 | 5976 ft | 179 kts | 94° |
| 2026-05-06 16:42 | 51.51467 | -2.32179 | 5975 ft | 179 kts | 94° |
| 2026-05-06 16:42 | 51.51331 | -2.30190 | 5976 ft | 179 kts | 94° |
| 2026-05-06 16:43 | 51.51196 | -2.28212 | 6018 ft | 177 kts | 94° |
| 2026-05-06 16:43 | 51.51064 | -2.26270 | 6191 ft | 175 kts | 94° |
| 2026-05-06 16:43 | 51.50932 | -2.24332 | 6439 ft | 176 kts | 94° |
| 2026-05-06 16:43 | 51.50799 | -2.22400 | 6689 ft | 173 kts | 94° |
| 2026-05-06 16:44 | 51.50668 | -2.20495 | 6920 ft | 171 kts | 94° |
| 2026-05-06 16:44 | 51.50539 | -2.18614 | 7136 ft | 170 kts | 94° |
| 2026-05-06 16:44 | 51.50409 | -2.16734 | 7347 ft | 170 kts | 94° |
| 2026-05-06 16:44 | 51.50279 | -2.14853 | 7554 ft | 170 kts | 94° |
| 2026-05-06 16:45 | 51.50103 | -2.12332 | 7767 ft | 173 kts | 94° |
| 2026-05-06 16:45 | 51.50013 | -2.11047 | 7837 ft | 176 kts | 94° |
| 2026-05-06 16:45 | 51.49875 | -2.09091 | 7943 ft | 178 kts | 94° |
| 2026-05-06 16:45 | 51.49735 | -2.07108 | 7994 ft | 183 kts | 94° |
| 2026-05-06 16:46 | 51.49588 | -2.05040 | 7987 ft | 186 kts | 94° |
| 2026-05-06 16:46 | 51.49442 | -2.02990 | 7976 ft | 186 kts | 94° |
| 2026-05-06 16:46 | 51.49297 | -2.00945 | 7974 ft | 185 kts | 94° |
| 2026-05-06 16:46 | 51.49153 | -1.98908 | 7984 ft | 184 kts | 94° |
| 2026-05-06 16:47 | 51.49005 | -1.96844 | 7967 ft | 184 kts | 94° |
| 2026-05-06 16:47 | 51.48862 | -1.94837 | 7960 ft | 184 kts | 94° |
| 2026-05-06 16:47 | 51.48716 | -1.92802 | 7981 ft | 183 kts | 94° |
| 2026-05-06 16:47 | 51.48570 | -1.90771 | 7983 ft | 184 kts | 94° |
| 2026-05-06 16:48 | 51.48423 | -1.88730 | 7964 ft | 184 kts | 94° |
| 2026-05-06 16:48 | 51.48276 | -1.86696 | 7982 ft | 183 kts | 94° |
| 2026-05-06 16:48 | 51.48130 | -1.84675 | 7984 ft | 183 kts | 94° |
| 2026-05-06 16:48 | 51.47985 | -1.82655 | 7976 ft | 183 kts | 94° |
| 2026-05-06 16:49 | 51.47837 | -1.80618 | 7980 ft | 183 kts | 94° |
| 2026-05-06 16:49 | 51.47692 | -1.78629 | 7982 ft | 183 kts | 94° |
| 2026-05-06 16:49 | 51.47544 | -1.76599 | 7982 ft | 183 kts | 94° |
| 2026-05-06 16:49 | 51.47397 | -1.74585 | 7982 ft | 183 kts | 94° |
| 2026-05-06 16:50 | 51.47249 | -1.72572 | 7983 ft | 183 kts | 94° |
| 2026-05-06 16:50 | 51.47098 | -1.70516 | 7982 ft | 184 kts | 94° |
| 2026-05-06 16:50 | 51.46949 | -1.68491 | 7985 ft | 184 kts | 94° |
| 2026-05-06 16:50 | 51.46943 | -1.66463 | 7980 ft | 182 kts | 83° |
| 2026-05-06 16:51 | 51.47046 | -1.64453 | 7979 ft | 182 kts | 82° |
| 2026-05-06 16:51 | 51.47153 | -1.62425 | 7984 ft | 182 kts | 82° |
| 2026-05-06 16:51 | 51.47258 | -1.60402 | 7982 ft | 182 kts | 82° |
| 2026-05-06 16:51 | 51.47354 | -1.58520 | 7984 ft | 182 kts | 82° |
| 2026-05-06 16:52 | 51.47446 | -1.56725 | 7985 ft | 182 kts | 82° |
| 2026-05-06 16:52 | 51.47651 | -1.52656 | 7979 ft | 182 kts | 82° |
| 2026-05-06 16:52 | 51.47753 | -1.50635 | 7989 ft | 182 kts | 82° |
| 2026-05-06 16:53 | 51.47853 | -1.48640 | 7980 ft | 183 kts | 82° |
| 2026-05-06 16:53 | 51.47953 | -1.46625 | 7981 ft | 182 kts | 82° |
| 2026-05-06 16:53 | 51.48053 | -1.44601 | 7979 ft | 182 kts | 83° |
| 2026-05-06 16:53 | 51.48153 | -1.42590 | 7983 ft | 182 kts | 82° |
| 2026-05-06 16:54 | 51.48253 | -1.40576 | 7984 ft | 182 kts | 82° |
| 2026-05-06 16:54 | 51.48353 | -1.38544 | 7988 ft | 182 kts | 82° |
| 2026-05-06 16:54 | 51.48451 | -1.36542 | 7984 ft | 182 kts | 82° |
| 2026-05-06 16:54 | 51.48549 | -1.34516 | 7985 ft | 182 kts | 83° |
| 2026-05-06 16:55 | 51.48647 | -1.32465 | 7979 ft | 182 kts | 83° |
| 2026-05-06 16:55 | 51.48736 | -1.30445 | 7984 ft | 182 kts | 83° |
| 2026-05-06 16:55 | 51.48833 | -1.28424 | 7985 ft | 182 kts | 83° |
| 2026-05-06 16:55 | 51.48935 | -1.26391 | 7979 ft | 182 kts | 83° |
| 2026-05-06 16:56 | 51.49034 | -1.24382 | 7982 ft | 182 kts | 83° |
| 2026-05-06 16:56 | 51.49381 | -1.22491 | 7977 ft | 176 kts | 50° |
| 2026-05-06 16:56 | 51.50367 | -1.21393 | 7987 ft | 172 kts | 23° |
| 2026-05-06 16:56 | 51.51445 | -1.20682 | 7985 ft | 173 kts | 20° |
| 2026-05-06 16:57 | 51.52573 | -1.19976 | 7983 ft | 173 kts | 20° |
| 2026-05-06 16:57 | 51.53688 | -1.19290 | 7982 ft | 173 kts | 20° |
| 2026-05-06 16:57 | 51.54817 | -1.18603 | 7983 ft | 173 kts | 19° |
| 2026-05-06 16:57 | 51.55952 | -1.17915 | 7985 ft | 173 kts | 19° |
| 2026-05-06 16:58 | 51.57081 | -1.17235 | 7984 ft | 173 kts | 19° |
| 2026-05-06 16:58 | 51.58196 | -1.16563 | 7985 ft | 173 kts | 19° |
| 2026-05-06 16:58 | 51.59335 | -1.15879 | 7985 ft | 173 kts | 19° |
| 2026-05-06 16:58 | 51.60465 | -1.15200 | 7987 ft | 173 kts | 19° |
| 2026-05-06 16:59 | 51.61592 | -1.14522 | 7988 ft | 173 kts | 19° |
| 2026-05-06 16:59 | 51.62723 | -1.13843 | 7989 ft | 173 kts | 19° |
| 2026-05-06 16:59 | 51.63847 | -1.13167 | 7990 ft | 173 kts | 19° |
| 2026-05-06 16:59 | 51.64967 | -1.12494 | 7990 ft | 173 kts | 19° |
| 2026-05-06 17:00 | 51.66093 | -1.11817 | 7991 ft | 173 kts | 19° |
| 2026-05-06 17:00 | 51.67226 | -1.11136 | 7991 ft | 173 kts | 19° |
| 2026-05-06 17:00 | 51.68358 | -1.10454 | 7993 ft | 173 kts | 19° |
| 2026-05-06 17:00 | 51.69485 | -1.09774 | 7993 ft | 173 kts | 19° |
| 2026-05-06 17:01 | 51.70612 | -1.09094 | 7993 ft | 173 kts | 19° |
| 2026-05-06 17:01 | 51.71752 | -1.08407 | 7994 ft | 173 kts | 19° |
| 2026-05-06 17:01 | 51.72884 | -1.07723 | 7994 ft | 173 kts | 19° |
| 2026-05-06 17:01 | 51.74001 | -1.07049 | 7995 ft | 173 kts | 19° |
| 2026-05-06 17:02 | 51.75137 | -1.06363 | 7996 ft | 173 kts | 19° |
| 2026-05-06 17:02 | 51.76270 | -1.05678 | 7998 ft | 173 kts | 19° |
| 2026-05-06 17:02 | 51.77385 | -1.05004 | 7999 ft | 173 kts | 19° |
| 2026-05-06 17:02 | 51.78524 | -1.04315 | 8000 ft | 173 kts | 19° |
| 2026-05-06 17:03 | 51.79642 | -1.03639 | 8000 ft | 173 kts | 19° |
| 2026-05-06 17:03 | 51.80768 | -1.02956 | 8001 ft | 174 kts | 19° |
| 2026-05-06 17:03 | 51.81897 | -1.02272 | 8000 ft | 174 kts | 19° |
| 2026-05-06 17:03 | 51.83026 | -1.01588 | 7999 ft | 174 kts | 19° |
| 2026-05-06 17:04 | 51.84155 | -1.00903 | 7997 ft | 174 kts | 19° |
| 2026-05-06 17:04 | 51.85334 | -1.00780 | 8001 ft | 172 kts | 352° |
| 2026-05-06 17:04 | 51.86516 | -1.01121 | 7999 ft | 173 kts | 349° |
| 2026-05-06 17:04 | 51.87696 | -1.01493 | 7999 ft | 173 kts | 349° |
| 2026-05-06 17:05 | 51.88881 | -1.01871 | 7997 ft | 172 kts | 349° |
| 2026-05-06 17:05 | 51.90049 | -1.02246 | 7999 ft | 172 kts | 348° |
| 2026-05-06 17:05 | 51.91216 | -1.02623 | 7998 ft | 172 kts | 348° |
| 2026-05-06 17:05 | 51.92396 | -1.03005 | 7998 ft | 172 kts | 348° |
| 2026-05-06 17:06 | 51.93570 | -1.03385 | 8002 ft | 172 kts | 348° |
| 2026-05-06 17:06 | 51.94746 | -1.03767 | 8002 ft | 172 kts | 348° |
| 2026-05-06 17:06 | 51.95913 | -1.04147 | 8004 ft | 172 kts | 348° |
| 2026-05-06 17:06 | 51.97087 | -1.04529 | 8004 ft | 172 kts | 349° |
| 2026-05-06 17:07 | 51.98280 | -1.04917 | 8003 ft | 173 kts | 349° |
| 2026-05-06 17:07 | 51.99443 | -1.05296 | 8002 ft | 173 kts | 349° |
| 2026-05-06 17:07 | 52.00626 | -1.05681 | 8006 ft | 173 kts | 349° |
| 2026-05-06 17:07 | 52.01810 | -1.06066 | 8002 ft | 173 kts | 349° |
| 2026-05-06 17:08 | 52.02993 | -1.06452 | 8001 ft | 173 kts | 349° |
| 2026-05-06 17:08 | 52.04172 | -1.06836 | 8004 ft | 173 kts | 349° |
| 2026-05-06 17:08 | 52.05360 | -1.07224 | 8004 ft | 173 kts | 349° |
| 2026-05-06 17:08 | 52.06538 | -1.07608 | 7993 ft | 173 kts | 349° |
| 2026-05-06 17:09 | 52.07716 | -1.07993 | 7997 ft | 172 kts | 348° |
| 2026-05-06 17:09 | 52.08891 | -1.08377 | 8007 ft | 172 kts | 348° |
| 2026-05-06 17:09 | 52.10059 | -1.08760 | 8014 ft | 173 kts | 349° |
| 2026-05-06 17:09 | 52.11251 | -1.09150 | 8006 ft | 174 kts | 349° |
| 2026-05-06 17:10 | 52.12429 | -1.09536 | 8000 ft | 173 kts | 349° |
| 2026-05-06 17:10 | 52.13611 | -1.09923 | 8008 ft | 174 kts | 349° |
| 2026-05-06 17:10 | 52.14815 | -1.10318 | 8005 ft | 174 kts | 349° |
| 2026-05-06 17:10 | 52.15993 | -1.10704 | 8000 ft | 174 kts | 349° |
| 2026-05-06 17:11 | 52.17186 | -1.11095 | 8009 ft | 174 kts | 349° |
| 2026-05-06 17:11 | 52.18388 | -1.11152 | 8011 ft | 174 kts | 10° |
| 2026-05-06 17:11 | 52.19567 | -1.10688 | 8003 ft | 174 kts | 14° |
| 2026-05-06 17:11 | 52.20734 | -1.10187 | 8001 ft | 174 kts | 14° |
| 2026-05-06 17:12 | 52.21900 | -1.09684 | 8000 ft | 174 kts | 14° |
| 2026-05-06 17:12 | 52.23087 | -1.09170 | 8003 ft | 174 kts | 13° |
| 2026-05-06 17:12 | 52.24254 | -1.08665 | 8002 ft | 174 kts | 14° |
| 2026-05-06 17:12 | 52.25416 | -1.08161 | 7999 ft | 174 kts | 14° |
| 2026-05-06 17:13 | 52.26590 | -1.07652 | 8002 ft | 174 kts | 14° |
| 2026-05-06 17:13 | 52.27774 | -1.07137 | 8003 ft | 174 kts | 14° |
| 2026-05-06 17:13 | 52.28935 | -1.06632 | 8005 ft | 175 kts | 14° |
| 2026-05-06 17:13 | 52.30114 | -1.06119 | 8003 ft | 175 kts | 14° |
| 2026-05-06 17:14 | 52.31289 | -1.05607 | 8001 ft | 174 kts | 14° |
| 2026-05-06 17:14 | 52.32469 | -1.05093 | 8003 ft | 174 kts | 14° |
| 2026-05-06 17:14 | 52.33644 | -1.04581 | 8004 ft | 174 kts | 14° |
| 2026-05-06 17:14 | 52.34806 | -1.04073 | 8003 ft | 174 kts | 14° |
| 2026-05-06 17:15 | 52.35983 | -1.03560 | 8001 ft | 174 kts | 14° |
| 2026-05-06 17:15 | 52.37162 | -1.03045 | 8000 ft | 174 kts | 14° |
| 2026-05-06 17:15 | 52.38326 | -1.02537 | 8000 ft | 174 kts | 14° |
| 2026-05-06 17:15 | 52.39491 | -1.02029 | 8003 ft | 174 kts | 14° |
| 2026-05-06 17:16 | 52.40665 | -1.01517 | 8004 ft | 174 kts | 14° |
| 2026-05-06 17:16 | 52.41845 | -1.01001 | 8002 ft | 175 kts | 14° |
| 2026-05-06 17:16 | 52.43016 | -1.00489 | 8002 ft | 175 kts | 14° |
| 2026-05-06 17:16 | 52.44183 | -0.99977 | 8000 ft | 175 kts | 14° |
| 2026-05-06 17:17 | 52.45358 | -0.99462 | 7999 ft | 174 kts | 14° |
| 2026-05-06 17:17 | 52.46543 | -0.98943 | 8000 ft | 174 kts | 14° |
| 2026-05-06 17:17 | 52.47704 | -0.98434 | 7999 ft | 174 kts | 14° |
| 2026-05-06 17:17 | 52.48882 | -0.97916 | 7995 ft | 174 kts | 14° |
| 2026-05-06 17:18 | 52.50064 | -0.97397 | 7993 ft | 174 kts | 14° |
| 2026-05-06 17:18 | 52.51237 | -0.96881 | 7991 ft | 174 kts | 14° |
| 2026-05-06 17:18 | 52.52397 | -0.96372 | 7992 ft | 174 kts | 14° |
| 2026-05-06 17:18 | 52.53571 | -0.95855 | 7994 ft | 174 kts | 14° |
| 2026-05-06 17:19 | 52.54741 | -0.95341 | 7993 ft | 174 kts | 14° |
| 2026-05-06 17:19 | 52.55911 | -0.94826 | 7993 ft | 174 kts | 14° |
| 2026-05-06 17:19 | 52.57092 | -0.94305 | 7995 ft | 174 kts | 14° |
| 2026-05-06 17:19 | 52.58269 | -0.93948 | 7989 ft | 174 kts | 1° |
| 2026-05-06 17:20 | 52.59465 | -0.94227 | 7989 ft | 174 kts | 343° |
| 2026-05-06 17:20 | 52.60534 | -0.95147 | 7990 ft | 174 kts | 324° |
| 2026-05-06 17:20 | 52.61357 | -0.96610 | 7994 ft | 176 kts | 305° |
| 2026-05-06 17:20 | 52.61838 | -0.98472 | 7997 ft | 178 kts | 285° |
| 2026-05-06 17:21 | 52.61901 | -1.00529 | 7995 ft | 181 kts | 265° |
| 2026-05-06 17:21 | 52.61519 | -1.02505 | 7991 ft | 184 kts | 243° |
| 2026-05-06 17:21 | 52.60608 | -1.03961 | 7997 ft | 186 kts | 215° |
| 2026-05-06 17:21 | 52.59412 | -1.04824 | 8003 ft | 188 kts | 198° |
| 2026-05-06 17:22 | 52.58128 | -1.05290 | 8001 ft | 189 kts | 191° |
| 2026-05-06 17:22 | 52.56833 | -1.05596 | 7999 ft | 189 kts | 188° |
| 2026-05-06 17:22 | 52.55530 | -1.05845 | 8000 ft | 189 kts | 187° |
| 2026-05-06 17:22 | 52.54220 | -1.06074 | 7992 ft | 189 kts | 187° |
| 2026-05-06 17:23 | 52.52889 | -1.06301 | 7991 ft | 189 kts | 187° |
| 2026-05-06 17:23 | 52.51687 | -1.06921 | 7989 ft | 186 kts | 219° |
| 2026-05-06 17:23 | 52.51053 | -1.08675 | 7996 ft | 180 kts | 265° |
| 2026-05-06 17:23 | 52.51351 | -1.10570 | 7996 ft | 174 kts | 309° |
| 2026-05-06 17:24 | 52.52362 | -1.11554 | 7993 ft | 172 kts | 344° |
| 2026-05-06 17:24 | 52.53529 | -1.12130 | 7911 ft | 176 kts | 342° |
| 2026-05-06 17:24 | 52.54699 | -1.12837 | 7838 ft | 178 kts | 339° |
| 2026-05-06 17:24 | 52.55815 | -1.13578 | 7754 ft | 174 kts | 338° |
| 2026-05-06 17:25 | 52.56927 | -1.14342 | 7663 ft | 171 kts | 338° |
| 2026-05-06 17:25 | 52.58018 | -1.15102 | 7561 ft | 170 kts | 338° |
| 2026-05-06 17:25 | 52.59109 | -1.15864 | 7462 ft | 170 kts | 338° |
| 2026-05-06 17:25 | 52.60202 | -1.16630 | 7361 ft | 170 kts | 338° |
| 2026-05-06 17:26 | 52.61335 | -1.16955 | 7238 ft | 170 kts | 11° |
| 2026-05-06 17:26 | 52.62376 | -1.16075 | 7144 ft | 171 kts | 33° |
| 2026-05-06 17:26 | 52.63354 | -1.14959 | 7059 ft | 171 kts | 34° |
| 2026-05-06 17:26 | 52.64326 | -1.13837 | 6966 ft | 171 kts | 34° |
| 2026-05-06 17:27 | 52.65291 | -1.12723 | 6874 ft | 170 kts | 34° |
| 2026-05-06 17:27 | 52.66257 | -1.11606 | 6782 ft | 170 kts | 34° |
| 2026-05-06 17:27 | 52.67215 | -1.10499 | 6690 ft | 170 kts | 34° |
| 2026-05-06 17:27 | 52.68189 | -1.09374 | 6596 ft | 169 kts | 34° |
| 2026-05-06 17:28 | 52.69144 | -1.08270 | 6512 ft | 169 kts | 34° |
| 2026-05-06 17:28 | 52.70113 | -1.07149 | 6422 ft | 169 kts | 34° |
| 2026-05-06 17:28 | 52.71067 | -1.06045 | 6335 ft | 169 kts | 34° |
| 2026-05-06 17:28 | 52.72037 | -1.04921 | 6256 ft | 169 kts | 34° |
| 2026-05-06 17:29 | 52.73061 | -1.04018 | 6168 ft | 168 kts | 20° |
| 2026-05-06 17:29 | 52.74191 | -1.03503 | 6020 ft | 170 kts | 12° |
| 2026-05-06 17:29 | 52.75367 | -1.03186 | 5858 ft | 169 kts | 8° |
| 2026-05-06 17:29 | 52.76523 | -1.02964 | 5700 ft | 169 kts | 7° |
| 2026-05-06 17:30 | 52.77700 | -1.02772 | 5538 ft | 168 kts | 6° |
| 2026-05-06 17:30 | 52.78850 | -1.02595 | 5347 ft | 166 kts | 6° |
| 2026-05-06 17:30 | 52.80004 | -1.02424 | 5060 ft | 168 kts | 6° |
| 2026-05-06 17:30 | 52.81174 | -1.02253 | 4706 ft | 171 kts | 5° |
| 2026-05-06 17:31 | 52.82300 | -1.02780 | 4349 ft | 177 kts | 325° |
| 2026-05-06 17:31 | 52.82896 | -1.04551 | 4072 ft | 182 kts | 281° |
| 2026-05-06 17:31 | 52.82872 | -1.06607 | 3911 ft | 175 kts | 271° |
| 2026-05-06 17:31 | 52.82869 | -1.08551 | 3762 ft | 165 kts | 275° |
| 2026-05-06 17:32 | 52.82913 | -1.10412 | 3600 ft | 160 kts | 276° |
| 2026-05-06 17:32 | 52.82975 | -1.12219 | 3457 ft | 156 kts | 276° |
| 2026-05-06 17:32 | 52.83042 | -1.14002 | 3298 ft | 154 kts | 277° |
| 2026-05-06 17:32 | 52.83114 | -1.15767 | 3137 ft | 154 kts | 277° |
| 2026-05-06 17:33 | 52.83186 | -1.17519 | 2977 ft | 153 kts | 277° |
| 2026-05-06 17:33 | 52.83254 | -1.19285 | 2829 ft | 153 kts | 275° |
| 2026-05-06 17:33 | 52.83275 | -1.21031 | 2717 ft | 151 kts | 274° |
| 2026-05-06 17:33 | 52.83272 | -1.22740 | 2648 ft | 147 kts | 272° |
| 2026-05-06 17:34 | 52.83254 | -1.24432 | 2569 ft | 145 kts | 272° |
| 2026-05-06 17:34 | 52.83229 | -1.26075 | 2483 ft | 144 kts | 272° |
| 2026-05-06 17:34 | 52.83201 | -1.27733 | 2394 ft | 143 kts | 272° |
| 2026-05-06 17:34 | 52.83172 | -1.29379 | 2305 ft | 143 kts | 271° |
| 2026-05-06 17:35 | 52.83141 | -1.31021 | 2215 ft | 143 kts | 270° |
| 2026-05-06 17:35 | 52.83110 | -1.32678 | 2122 ft | 143 kts | 271° |
| 2026-05-06 17:35 | 52.83080 | -1.34310 | 2032 ft | 143 kts | 271° |
| 2026-05-06 17:36 | 52.83020 | -1.37339 | 2030 ft | 121 kts | 270° |
| 2026-05-06 17:36 | 52.82993 | -1.38696 | 2032 ft | 118 kts | 271° |
| 2026-05-06 17:36 | 52.82967 | -1.40044 | 2026 ft | 112 kts | 272° |
| 2026-05-06 17:36 | 52.82944 | -1.41295 | 2026 ft | 108 kts | 271° |
| 2026-05-06 17:37 | 52.82920 | -1.42526 | 2032 ft | 105 kts | 272° |
| 2026-05-06 17:37 | 52.82898 | -1.43729 | 2036 ft | 105 kts | 270° |
| 2026-05-06 17:37 | 52.82862 | -1.44965 | 2039 ft | 111 kts | 262° |
| 2026-05-06 17:37 | 52.82514 | -1.46128 | 2043 ft | 116 kts | 232° |
| 2026-05-06 17:38 | 52.82010 | -1.47208 | 2037 ft | 119 kts | 229° |
| 2026-05-06 17:38 | 52.81495 | -1.48285 | 2033 ft | 121 kts | 231° |
| 2026-05-06 17:38 | 52.80971 | -1.49376 | 2034 ft | 121 kts | 231° |
| 2026-05-06 17:38 | 52.80443 | -1.50478 | 2033 ft | 122 kts | 231° |
| 2026-05-06 17:39 | 52.79921 | -1.51566 | 2033 ft | 122 kts | 230° |
| 2026-05-06 17:39 | 52.79395 | -1.52661 | 2029 ft | 122 kts | 231° |
| 2026-05-06 17:39 | 52.78869 | -1.53754 | 2029 ft | 121 kts | 231° |
| 2026-05-06 17:39 | 52.78337 | -1.54855 | 2032 ft | 121 kts | 230° |
| 2026-05-06 17:40 | 52.77818 | -1.55934 | 2029 ft | 121 kts | 230° |
| 2026-05-06 17:40 | 52.77343 | -1.57102 | 2028 ft | 121 kts | 246° |
| 2026-05-06 17:40 | 52.77096 | -1.58419 | 2029 ft | 120 kts | 262° |
| 2026-05-06 17:40 | 52.77092 | -1.59774 | 2031 ft | 118 kts | 283° |
| 2026-05-06 17:41 | 52.77325 | -1.61073 | 2029 ft | 115 kts | 300° |
| 2026-05-06 17:41 | 52.77747 | -1.62154 | 2027 ft | 112 kts | 317° |
| 2026-05-06 17:41 | 52.78325 | -1.62996 | 2028 ft | 109 kts | 333° |
| 2026-05-06 17:41 | 52.78992 | -1.63534 | 2026 ft | 106 kts | 348° |
| 2026-05-06 17:42 | 52.79665 | -1.64091 | 2027 ft | 111 kts | 332° |
| 2026-05-06 17:42 | 52.80247 | -1.64972 | 2029 ft | 114 kts | 316° |
| 2026-05-06 17:42 | 52.80743 | -1.65989 | 2025 ft | 114 kts | 318° |
| 2026-05-06 17:42 | 52.81404 | -1.66590 | 2023 ft | 105 kts | 355° |
| 2026-05-06 17:43 | 52.82118 | -1.66700 | 2020 ft | 102 kts | 13° |
| 2026-05-06 17:43 | 52.82687 | -1.66135 | 2026 ft | 96 kts | 57° |
| 2026-05-06 17:43 | 52.82805 | -1.65057 | 2029 ft | 97 kts | 93° |
| 2026-05-06 17:43 | 52.82723 | -1.63946 | 2028 ft | 98 kts | 92° |
| 2026-05-06 17:44 | 52.82666 | -1.62821 | 2027 ft | 98 kts | 90° |
| 2026-05-06 17:44 | 52.82636 | -1.61713 | 2028 ft | 97 kts | 88° |
| 2026-05-06 17:44 | 52.82624 | -1.60589 | 2027 ft | 97 kts | 88° |
| 2026-05-06 17:44 | 52.82624 | -1.59459 | 2030 ft | 97 kts | 88° |
| 2026-05-06 17:45 | 52.82632 | -1.58354 | 2028 ft | 97 kts | 87° |
| 2026-05-06 17:45 | 52.82646 | -1.57234 | 2028 ft | 97 kts | 86° |
| 2026-05-06 17:45 | 52.82663 | -1.56117 | 2025 ft | 97 kts | 86° |
| 2026-05-06 17:45 | 52.82682 | -1.55002 | 2026 ft | 96 kts | 85° |
| 2026-05-06 17:46 | 52.82703 | -1.53893 | 2028 ft | 96 kts | 85° |
| 2026-05-06 17:46 | 52.82724 | -1.52778 | 2030 ft | 96 kts | 85° |
| 2026-05-06 17:46 | 52.82745 | -1.51671 | 2029 ft | 96 kts | 86° |
| 2026-05-06 17:46 | 52.82766 | -1.50574 | 2031 ft | 96 kts | 84° |
| 2026-05-06 17:47 | 52.82788 | -1.49461 | 2026 ft | 96 kts | 85° |
| 2026-05-06 17:47 | 52.82810 | -1.48318 | 1948 ft | 103 kts | 85° |
| 2026-05-06 17:47 | 52.82834 | -1.47094 | 1821 ft | 108 kts | 85° |
| 2026-05-06 17:47 | 52.82858 | -1.45837 | 1684 ft | 112 kts | 85° |
| 2026-05-06 17:48 | 52.82882 | -1.44552 | 1533 ft | 110 kts | 86° |
| 2026-05-06 17:48 | 52.82906 | -1.43311 | 1381 ft | 104 kts | 85° |
| 2026-05-06 17:48 | 52.82928 | -1.42137 | 1245 ft | 101 kts | 85° |
| 2026-05-06 17:48 | 52.82950 | -1.41005 | 1110 ft | 95 kts | 85° |
| 2026-05-06 17:49 | 52.82971 | -1.39939 | 979 ft | 92 kts | 85° |
| 2026-05-06 17:49 | 52.82991 | -1.38893 | 853 ft | 90 kts | 86° |
| 2026-05-06 17:49 | 52.83009 | -1.37863 | 735 ft | 89 kts | 84° |
| 2026-05-06 17:49 | 52.83028 | -1.36831 | 616 ft | 90 kts | 85° |
| 2026-05-06 17:50 | 52.83047 | -1.35803 | 496 ft | 90 kts | 85° |
| 2026-05-06 17:50 | 52.83063 | -1.34763 | 371 ft | 89 kts | 89° |
| 2026-05-06 17:50 | 52.83075 | -1.33824 | 304 ft | 69 kts | 86° |
| 2026-05-06 17:50 | 52.83095 | -1.33175 | 297 ft | 46 kts | 87° |
| 2026-05-06 17:51 | 52.83106 | -1.32756 | 293 ft | 28 kts | 86° |
| 2026-05-06 17:51 | 52.83011 | -1.32673 | 289 ft | 21 kts | 213° |
| 2026-05-06 17:51 | 52.82932 | -1.32861 | 289 ft | 19 kts | 253° |
| 2026-05-06 17:51 | 52.82926 | -1.33072 | 292 ft | 17 kts | 270° |
| 2026-05-06 17:52 | 52.82923 | -1.33253 | 296 ft | 14 kts | 272° |
| 2026-05-06 17:52 | 52.82920 | -1.33409 | 299 ft | 12 kts | 266° |
| 2026-05-06 17:52 | 52.82916 | -1.33549 | 300 ft | 12 kts | 269° |
| 2026-05-06 17:52 | 52.82912 | -1.33692 | 300 ft | 12 kts | 244° |
| 2026-05-06 17:53 | 52.82827 | -1.33712 | 298 ft | 13 kts | 173° |
| 2026-05-06 17:53 | 52.82740 | -1.33746 | 295 ft | 15 kts | 258° |
| 2026-05-06 17:53 | 52.82709 | -1.33918 | 294 ft | 16 kts | 239° |
| 2026-05-06 17:53 | 52.82665 | -1.34001 | 292 ft | 6 kts | 175° |
| 2026-05-06 17:54 | 52.82659 | -1.33996 | 292 ft | 0 kts | 117° |